Time;durP1;ratioP1;P1;durP2;ratioP2;P2;SDS_P1;SDS_P2;PMS_P1;PMS_P2;Temp;Humidity;BMP_temperature;BMP_pressure;BME280_temperature;BME280_humidity;BME280_pressure;Samples;Min_cycle;Max_cycle;Signal;HPM_P1;HPM_P2
2023/12/24 00:00:00;;;;;;;5.57;4.15;;;;;;;6.82;70.87;92660.22;514003;28;3229;-67
2023/12/24 00:00:17;;;;;;;4.90;4.07;;;;;;;6.85;70.74;92666.66;514090;28;1596;-67
2023/12/24 00:00:33;;;;;;;5.43;3.88;;;;;;;6.86;70.74;92671.59;513416;28;3117;-68
2023/12/24 00:00:48;;;;;;;7.05;4.07;;;;;;;6.82;70.65;92662.25;514074;28;1670;-70
2023/12/24 00:01:07;;;;;;;8.00;4.43;;;;;;;6.89;70.60;92670.50;513143;28;3498;-69
2023/12/24 00:01:22;;;;;;;7.32;4.63;;;;;;;6.89;70.63;92676.00;513851;28;1676;-70
2023/12/24 00:01:40;;;;;;;5.50;4.07;;;;;;;6.89;70.72;92670.50;513153;28;2633;-69
2023/12/24 00:01:56;;;;;;;4.75;3.67;;;;;;;6.91;70.81;92675.44;513539;28;3257;-69
2023/12/24 00:02:11;;;;;;;4.53;3.33;;;;;;;6.74;70.62;92651.25;513662;28;1777;-69
2023/12/24 00:02:26;;;;;;;4.45;3.33;;;;;;;6.89;70.75;92670.50;513896;28;1672;-69
2023/12/24 00:02:42;;;;;;;5.17;3.20;;;;;;;6.72;70.62;92644.84;514133;28;2022;-70
2023/12/24 00:02:57;;;;;;;5.73;3.30;;;;;;;6.92;70.69;92673.44;513387;28;1899;-69
2023/12/24 00:03:13;;;;;;;5.28;3.40;;;;;;;6.90;70.77;92671.25;513792;28;3023;-69
2023/12/24 00:03:28;;;;;;;4.23;3.17;;;;;;;6.89;70.84;92672.50;513663;28;1878;-68
2023/12/24 00:03:44;;;;;;;4.65;3.30;;;;;;;6.88;70.98;92671.06;513481;28;2453;-69
2023/12/24 00:03:59;;;;;;;5.33;3.33;;;;;;;6.87;70.90;92673.06;514273;28;1157;-69
2023/12/24 00:04:15;;;;;;;6.13;3.35;;;;;;;6.87;70.80;92675.06;513676;28;3290;-69
2023/12/24 00:04:30;;;;;;;6.57;3.37;;;;;;;6.85;71.07;92670.13;513985;28;3286;-69
2023/12/24 00:04:49;;;;;;;5.40;3.28;;;;;;;6.86;71.16;92665.38;513016;28;3290;-69
2023/12/24 00:05:05;;;;;;;4.57;3.13;;;;;;;6.86;71.00;92670.88;513099;28;1794;-69
2023/12/24 00:05:20;;;;;;;6.65;3.30;;;;;;;6.85;71.17;92669.41;514407;28;3159;-69
2023/12/24 00:05:35;;;;;;;7.00;3.70;;;;;;;6.82;71.12;92665.00;512954;28;2167;-69
2023/12/24 00:05:51;;;;;;;4.63;3.60;;;;;;;6.82;71.25;92670.50;514374;28;1780;-69
2023/12/24 00:06:08;;;;;;;4.23;3.50;;;;;;;6.81;71.37;92672.50;513501;28;1984;-68
2023/12/24 00:06:24;;;;;;;4.10;3.70;;;;;;;6.77;71.28;92655.66;513617;28;1683;-68
2023/12/24 00:06:39;;;;;;;4.67;3.90;;;;;;;6.84;71.30;92671.41;513223;28;1599;-68
2023/12/24 00:06:54;;;;;;;5.10;3.80;;;;;;;6.73;71.50;92658.03;514359;28;2554;-68
2023/12/24 00:07:10;;;;;;;5.23;3.80;;;;;;;6.82;71.56;92670.50;512754;28;2260;-68
2023/12/24 00:07:25;;;;;;;6.00;3.90;;;;;;;6.82;71.45;92670.50;514134;28;2031;-68
2023/12/24 00:07:41;;;;;;;4.97;3.72;;;;;;;6.81;71.44;92674.50;511946;28;1887;-68
2023/12/24 00:07:56;;;;;;;4.37;3.70;;;;;;;6.84;71.31;92667.94;513949;28;2334;-68
2023/12/24 00:08:12;;;;;;;4.57;3.60;;;;;;;6.83;71.69;92672.69;513376;28;3920;-68
2023/12/24 00:08:31;;;;;;;4.87;3.50;;;;;;;6.82;71.31;92671.22;513193;28;1898;-68
2023/12/24 00:08:46;;;;;;;5.60;3.63;;;;;;;6.76;71.48;92662.41;513438;28;1789;-68
2023/12/24 00:09:02;;;;;;;4.55;3.80;;;;;;;6.85;71.58;92672.13;514156;28;1826;-68
2023/12/24 00:09:17;;;;;;;5.23;4.00;;;;;;;6.62;71.67;92641.88;513406;28;3032;-68
2023/12/24 00:09:33;;;;;;;6.88;4.25;;;;;;;6.82;71.67;92673.25;513735;28;2004;-68
2023/12/24 00:09:48;;;;;;;7.33;4.27;;;;;;;6.82;71.63;92675.97;513248;28;2258;-70
2023/12/24 00:10:04;;;;;;;6.68;4.07;;;;;;;6.83;71.42;92675.44;513977;28;1861;-68
2023/12/24 00:10:20;;;;;;;5.80;3.95;;;;;;;6.82;71.58;92676.69;513941;28;2875;-68
2023/12/24 00:10:36;;;;;;;5.67;3.77;;;;;;;6.77;71.36;92674.88;513678;28;2825;-68
2023/12/24 00:10:51;;;;;;;4.78;3.63;;;;;;;6.82;71.54;92673.94;513412;28;2106;-68
2023/12/24 00:11:07;;;;;;;4.67;3.63;;;;;;;6.84;71.44;92676.16;513866;28;1759;-68
2023/12/24 00:11:22;;;;;;;5.90;3.90;;;;;;;6.85;71.68;92678.38;513604;28;3424;-68
2023/12/24 00:11:38;;;;;;;5.75;3.92;;;;;;;6.85;71.59;92680.38;513692;28;1548;-69
2023/12/24 00:11:53;;;;;;;4.43;3.90;;;;;;;6.85;71.71;92678.38;513322;28;2329;-68
2023/12/24 00:12:09;;;;;;;4.27;3.70;;;;;;;6.82;71.74;92684.94;513862;28;2424;-68
2023/12/24 00:12:24;;;;;;;4.63;3.65;;;;;;;6.81;71.68;92680.00;513757;28;2402;-68
2023/12/24 00:12:40;;;;;;;4.87;3.90;;;;;;;6.80;71.80;92684.00;513972;28;3762;-68
2023/12/24 00:12:56;;;;;;;5.07;3.83;;;;;;;6.77;71.75;92676.88;513137;28;2008;-67
2023/12/24 00:13:11;;;;;;;5.53;3.93;;;;;;;6.74;71.95;92680.69;514516;28;2364;-68
2023/12/24 00:13:27;;;;;;;5.68;4.10;;;;;;;6.73;71.96;92685.47;513705;28;1988;-68
2023/12/24 00:13:43;;;;;;;6.93;4.15;;;;;;;6.74;71.95;92686.16;514211;28;2879;-68
2023/12/24 00:13:58;;;;;;;6.97;4.03;;;;;;;6.72;71.96;92683.97;513415;28;3583;-69
2023/12/24 00:14:14;;;;;;;6.53;3.83;;;;;;;6.74;71.91;92686.16;513863;28;2252;-68
2023/12/24 00:14:29;;;;;;;6.60;4.27;;;;;;;6.75;71.83;92682.16;513489;28;1593;-69
2023/12/24 00:14:45;;;;;;;6.30;4.63;;;;;;;6.74;71.93;92681.44;513456;28;1584;-68
2023/12/24 00:15:01;;;;;;;5.60;4.38;;;;;;;6.75;71.88;92676.69;513615;28;2310;-68
2023/12/24 00:15:16;;;;;;;7.90;4.60;;;;;;;6.75;72.12;92682.91;513554;28;1599;-68
2023/12/24 00:15:32;;;;;;;8.13;4.27;;;;;;;6.73;72.00;92674.50;512990;28;1889;-68
2023/12/24 00:15:48;;;;;;;5.35;4.03;;;;;;;6.52;71.72;92651.88;513321;28;1884;-68
2023/12/24 00:16:04;;;;;;;7.47;4.50;;;;;;;6.52;72.09;92648.44;513090;28;3252;-68
2023/12/24 00:16:19;;;;;;;7.70;4.70;;;;;;;6.73;72.07;92679.97;513797;28;1937;-68
2023/12/24 00:16:39;;;;;;;6.27;4.80;;;;;;;6.60;72.10;92666.38;514030;28;2825;-68
2023/12/24 00:16:55;;;;;;;5.85;4.97;;;;;;;6.71;72.17;92684.53;513681;28;1584;-69
2023/12/24 00:17:11;;;;;;;5.80;5.18;;;;;;;6.69;72.19;92682.31;513255;28;1800;-67
2023/12/24 00:17:27;;;;;;;5.97;4.90;;;;;;;6.67;72.23;92676.63;513952;28;2579;-67
2023/12/24 00:17:42;;;;;;;6.03;4.47;;;;;;;6.67;72.15;92682.13;513634;28;2711;-69
2023/12/24 00:17:58;;;;;;;6.38;4.63;;;;;;;6.67;72.06;92678.66;512557;28;3040;-68
2023/12/24 00:18:14;;;;;;;6.63;4.77;;;;;;;6.67;72.10;92675.91;514578;28;1944;-68
2023/12/24 00:18:29;;;;;;;6.45;4.78;;;;;;;6.68;72.21;92682.84;513382;28;2956;-68
2023/12/24 00:18:45;;;;;;;6.63;4.67;;;;;;;6.69;71.94;92685.06;514548;28;2183;-68
2023/12/24 00:19:00;;;;;;;7.22;4.72;;;;;;;6.69;72.16;92674.06;513484;28;1844;-68
2023/12/24 00:19:15;;;;;;;8.20;4.40;;;;;;;6.69;72.14;92668.59;514074;28;1548;-68
2023/12/24 00:19:31;;;;;;;7.50;4.32;;;;;;;6.69;71.92;92682.31;513675;28;1558;-68
2023/12/24 00:19:46;;;;;;;6.10;4.63;;;;;;;6.69;72.01;92679.56;513580;28;3066;-68
2023/12/24 00:20:02;;;;;;;7.53;4.75;;;;;;;6.67;72.05;92681.41;512714;28;1859;-68
2023/12/24 00:20:18;;;;;;;7.97;4.20;;;;;;;6.70;71.97;92681.03;513112;28;2970;-68
2023/12/24 00:20:33;;;;;;;6.97;4.20;;;;;;;6.69;71.92;92687.78;513736;28;2196;-69
2023/12/24 00:20:48;;;;;;;6.17;4.77;;;;;;;6.57;72.22;92669.47;513862;28;3416;-68
2023/12/24 00:21:04;;;;;;;5.57;4.53;;;;;;;6.68;71.80;92685.59;513508;28;2028;-68
2023/12/24 00:21:20;;;;;;;7.07;4.40;;;;;;;6.56;72.17;92668.00;513954;28;2136;-68
2023/12/24 00:21:35;;;;;;;7.75;4.63;;;;;;;6.63;72.20;92681.75;513919;28;2359;-68
2023/12/24 00:21:51;;;;;;;7.03;4.40;;;;;;;6.53;72.33;92661.59;513319;28;3667;-67
2023/12/24 00:22:06;;;;;;;6.43;4.28;;;;;;;6.63;72.19;92679.00;513124;28;2361;-68
2023/12/24 00:22:22;;;;;;;7.93;4.67;;;;;;;6.61;72.41;92683.56;513512;28;3195;-68
2023/12/24 00:22:37;;;;;;;8.95;4.88;;;;;;;6.55;72.47;92685.72;513587;28;3075;-68
2023/12/24 00:23:08;;;;;;;8.07;4.60;;;;;;;6.61;72.53;92689.78;513347;28;2654;-68
2023/12/24 00:23:24;;;;;;;6.28;4.57;;;;;;;6.60;72.56;92691.06;513421;28;1669;-68
2023/12/24 00:23:39;;;;;;;5.27;4.30;;;;;;;6.54;72.59;92684.28;514312;28;2915;-68
2023/12/24 00:23:55;;;;;;;5.32;4.22;;;;;;;6.60;72.62;92682.09;512772;28;3058;-68
2023/12/24 00:24:10;;;;;;;8.17;4.73;;;;;;;6.57;72.76;92680.44;513951;28;1543;-68
2023/12/24 00:24:26;;;;;;;7.60;4.50;;;;;;;6.56;72.66;92682.44;512833;28;2100;-68
2023/12/24 00:24:43;;;;;;;4.70;3.87;;;;;;;6.56;72.71;92690.66;514660;28;1809;-68
2023/12/24 00:24:59;;;;;;;4.68;4.10;;;;;;;6.54;73.11;92687.72;513458;28;3372;-69
2023/12/24 00:25:14;;;;;;;5.60;4.27;;;;;;;6.50;72.75;92684.59;513883;28;1600;-68
2023/12/24 00:25:30;;;;;;;7.28;4.32;;;;;;;6.53;73.08;92680.78;513592;28;1791;-68
2023/12/24 00:25:45;;;;;;;6.30;4.00;;;;;;;6.52;73.07;92695.75;514535;28;3173;-68
2023/12/24 00:26:01;;;;;;;5.67;4.10;;;;;;;6.47;73.17;92679.47;513377;28;1840;-68
2023/12/24 00:26:17;;;;;;;5.80;4.15;;;;;;;6.51;73.11;92696.31;514383;28;2148;-69
2023/12/24 00:26:32;;;;;;;6.10;3.60;;;;;;;6.54;73.20;92690.47;513122;28;4486;-68
2023/12/24 00:26:47;;;;;;;4.70;3.30;;;;;;;6.56;73.25;92698.19;514428;28;2368;-69
2023/12/24 00:27:03;;;;;;;4.35;3.47;;;;;;;6.57;73.24;92691.41;510933;28;1767;-67
2023/12/24 00:27:19;;;;;;;7.47;4.27;;;;;;;6.48;72.90;92684.41;511917;28;3023;-68
2023/12/24 00:27:34;;;;;;;7.28;4.47;;;;;;;6.57;73.20;92694.13;511185;28;3725;-68
2023/12/24 00:27:50;;;;;;;5.50;4.03;;;;;;;6.60;73.14;92699.28;511751;28;1920;-68
2023/12/24 00:28:05;;;;;;;6.45;4.32;;;;;;;6.40;73.13;92664.44;510942;28;2012;-68
2023/12/24 00:28:21;;;;;;;7.00;4.38;;;;;;;6.61;73.29;92697.25;512417;28;1873;-68
2023/12/24 00:28:36;;;;;;;6.40;4.30;;;;;;;6.62;73.13;92698.75;511360;28;2583;-68
2023/12/24 00:28:52;;;;;;;6.60;4.50;;;;;;;6.63;73.09;92700.19;513312;28;2547;-68
2023/12/24 00:29:07;;;;;;;7.20;4.28;;;;;;;6.63;73.09;92698.19;513134;28;2209;-70
2023/12/24 00:29:23;;;;;;;6.32;4.28;;;;;;;6.59;73.02;92694.34;511672;28;1941;-68
2023/12/24 00:29:38;;;;;;;6.13;4.20;;;;;;;6.59;73.20;92694.34;511503;28;2916;-68
2023/12/24 00:29:54;;;;;;;7.13;4.20;;;;;;;6.30;73.29;92649.03;511313;28;2273;-68
2023/12/24 00:30:10;;;;;;;6.50;4.43;;;;;;;6.58;73.40;92701.81;511309;28;2949;-68
2023/12/24 00:30:29;;;;;;;5.07;4.20;;;;;;;6.57;73.47;92694.13;511139;28;1961;-68
2023/12/24 00:30:45;;;;;;;5.40;3.63;;;;;;;6.50;73.59;92689.34;511674;28;3403;-68
2023/12/24 00:31:00;;;;;;;7.28;3.90;;;;;;;6.56;73.57;92695.44;511594;28;3163;-67
2023/12/24 00:31:16;;;;;;;6.35;3.83;;;;;;;6.46;73.72;92678.00;513715;28;2333;-69
2023/12/24 00:31:32;;;;;;;4.93;3.90;;;;;;;6.56;73.79;92693.41;513420;28;1916;-68
2023/12/24 00:31:48;;;;;;;4.88;4.18;;;;;;;6.38;73.71;92666.25;513852;28;2238;-68
2023/12/24 00:32:03;;;;;;;5.60;4.00;;;;;;;6.59;73.62;92691.59;512960;28;2278;-68
2023/12/24 00:32:19;;;;;;;5.73;3.77;;;;;;;6.61;73.58;92687.03;514621;28;3199;-68
2023/12/24 00:32:35;;;;;;;4.85;3.53;;;;;;;6.60;73.52;92693.06;512993;28;2352;-68
2023/12/24 00:32:50;;;;;;;4.40;3.58;;;;;;;6.62;73.56;92693.25;514214;28;2131;-68
2023/12/24 00:33:06;;;;;;;3.70;3.40;;;;;;;6.62;73.61;92701.50;513782;28;1767;-68
2023/12/24 00:33:21;;;;;;;3.53;3.22;;;;;;;6.62;73.53;92691.25;513904;28;2564;-68
2023/12/24 00:33:37;;;;;;;4.60;3.30;;;;;;;6.62;73.44;92693.25;513456;28;2246;-68
2023/12/24 00:33:52;;;;;;;5.32;3.65;;;;;;;6.61;73.45;92698.00;513468;28;1805;-68
2023/12/24 00:34:07;;;;;;;6.37;3.90;;;;;;;6.60;73.69;92693.06;512974;28;2845;-68
2023/12/24 00:34:23;;;;;;;6.68;3.88;;;;;;;6.65;73.72;92698.38;513774;28;2113;-68
2023/12/24 00:34:38;;;;;;;4.60;3.60;;;;;;;6.62;73.51;92696.00;512703;28;2198;-68
2023/12/24 00:34:54;;;;;;;4.57;3.70;;;;;;;6.64;73.65;92693.44;513272;28;3412;-68
2023/12/24 00:35:11;;;;;;;5.05;4.00;;;;;;;6.67;73.69;92684.16;514011;28;3000;-68
2023/12/24 00:35:28;;;;;;;5.57;3.67;;;;;;;6.52;73.58;92662.84;513750;28;3034;-68
2023/12/24 00:35:43;;;;;;;5.95;3.85;;;;;;;6.71;73.38;92684.53;513365;28;3002;-68
2023/12/24 00:35:59;;;;;;;5.87;3.77;;;;;;;6.72;73.37;92689.47;513669;28;3073;-68
2023/12/24 00:36:14;;;;;;;6.22;3.50;;;;;;;6.71;73.42;92690.03;513768;28;1549;-68
2023/12/24 00:36:30;;;;;;;5.37;3.57;;;;;;;6.73;73.17;92699.19;513881;28;2317;-68
2023/12/24 00:36:45;;;;;;;5.68;3.67;;;;;;;6.72;73.20;92697.69;513133;28;1603;-68
2023/12/24 00:37:01;;;;;;;5.57;3.67;;;;;;;6.74;73.23;92697.16;514056;28;2654;-68
2023/12/24 00:37:16;;;;;;;5.47;3.80;;;;;;;6.74;73.20;92697.88;512647;28;3197;-68
2023/12/24 00:37:31;;;;;;;5.17;3.67;;;;;;;6.73;73.37;92698.44;512249;28;1936;-68
2023/12/24 00:37:49;;;;;;;4.80;3.43;;;;;;;6.74;73.33;92694.41;513426;28;1821;-68
2023/12/24 00:38:04;;;;;;;5.65;3.60;;;;;;;6.58;73.20;92668.19;513767;28;2925;-68
2023/12/24 00:38:20;;;;;;;4.60;3.50;;;;;;;6.76;73.18;92689.09;513827;28;1529;-68
2023/12/24 00:38:35;;;;;;;5.30;3.70;;;;;;;6.77;73.12;92702.28;513359;28;2001;-68
2023/12/24 00:38:50;;;;;;;5.63;3.90;;;;;;;6.77;73.11;92694.06;513057;28;1987;-68
2023/12/24 00:39:06;;;;;;;4.67;3.70;;;;;;;6.77;73.07;92696.81;513208;28;2312;-69
2023/12/24 00:39:21;;;;;;;5.47;3.58;;;;;;;6.76;73.11;92692.59;514257;28;1856;-68
2023/12/24 00:39:37;;;;;;;5.27;3.37;;;;;;;6.78;73.18;92698.25;513434;28;2011;-68
2023/12/24 00:39:52;;;;;;;4.35;3.42;;;;;;;6.79;73.34;92696.25;513715;28;2337;-68
2023/12/24 00:40:08;;;;;;;4.37;3.50;;;;;;;6.79;73.16;92691.50;512934;28;1921;-68
2023/12/24 00:40:24;;;;;;;5.05;3.53;;;;;;;6.78;73.10;92686.56;514008;28;3610;-68
2023/12/24 00:40:39;;;;;;;5.03;3.45;;;;;;;6.78;73.20;92692.03;513509;28;3327;-68
2023/12/24 00:40:55;;;;;;;4.40;3.40;;;;;;;6.79;73.14;92701.75;513978;28;2134;-68
2023/12/24 00:41:10;;;;;;;6.63;3.70;;;;;;;6.79;73.15;92696.25;513117;28;2147;-68
2023/12/24 00:41:25;;;;;;;7.00;3.97;;;;;;;6.77;73.16;92694.06;514175;28;1952;-68
2023/12/24 00:41:41;;;;;;;5.07;3.90;;;;;;;6.74;73.32;92695.13;512532;28;2026;-68
2023/12/24 00:41:57;;;;;;;6.47;3.80;;;;;;;6.74;73.26;92702.63;513964;28;3584;-68
2023/12/24 00:42:12;;;;;;;7.60;3.95;;;;;;;6.76;73.22;92705.56;513721;28;1981;-68
2023/12/24 00:42:27;;;;;;;7.60;4.10;;;;;;;6.76;73.34;92700.06;513864;28;2951;-68
2023/12/24 00:42:43;;;;;;;6.60;4.00;;;;;;;6.75;73.41;92699.38;513368;28;2065;-68
2023/12/24 00:42:59;;;;;;;5.22;3.80;;;;;;;6.73;73.30;92712.16;513260;28;1852;-68
2023/12/24 00:43:14;;;;;;;5.40;3.70;;;;;;;6.71;73.46;92701.69;513353;28;2907;-68
2023/12/24 00:43:29;;;;;;;6.25;4.00;;;;;;;6.72;73.64;92707.94;513840;28;1848;-68
2023/12/24 00:43:45;;;;;;;6.03;4.17;;;;;;;6.68;73.67;92704.81;513609;28;1740;-70
2023/12/24 00:44:01;;;;;;;6.60;3.90;;;;;;;6.66;73.58;92696.38;513924;28;2338;-68
2023/12/24 00:44:16;;;;;;;6.82;3.63;;;;;;;6.72;73.57;92708.66;513567;28;1693;-68
2023/12/24 00:44:32;;;;;;;5.83;3.63;;;;;;;6.68;73.68;92699.31;513657;28;3191;-69
2023/12/24 00:44:47;;;;;;;5.72;3.67;;;;;;;6.61;73.97;92700.75;513583;28;1936;-69
2023/12/24 00:45:04;;;;;;;5.27;3.50;;;;;;;6.62;74.03;92709.72;511827;28;3332;-69
2023/12/24 00:45:20;;;;;;;5.05;3.35;;;;;;;6.63;73.98;92702.94;513808;28;2081;-70
2023/12/24 00:45:36;;;;;;;4.85;3.42;;;;;;;6.67;73.98;92708.84;512689;28;2977;-69
2023/12/24 00:45:52;;;;;;;4.22;3.28;;;;;;;6.70;73.82;92710.47;512908;28;2099;-68
2023/12/24 00:46:07;;;;;;;5.18;3.67;;;;;;;6.72;73.79;92710.66;514051;28;3219;-69
2023/12/24 00:46:23;;;;;;;5.67;3.90;;;;;;;6.74;73.59;92708.13;513348;28;1735;-69
2023/12/24 00:46:38;;;;;;;4.07;3.63;;;;;;;6.74;73.74;92708.84;513492;28;2333;-69
2023/12/24 00:46:55;;;;;;;3.60;3.30;;;;;;;6.78;73.72;92708.50;514085;28;1726;-69
2023/12/24 00:47:11;;;;;;;3.63;3.20;;;;;;;6.79;73.60;92709.97;513941;28;2977;-69
2023/12/24 00:47:26;;;;;;;4.35;3.33;;;;;;;6.80;73.53;92717.66;513767;28;1820;-69
2023/12/24 00:47:42;;;;;;;4.37;3.40;;;;;;;6.81;73.38;92710.91;514122;28;1995;-70
2023/12/24 00:47:57;;;;;;;4.63;3.47;;;;;;;6.83;73.64;92713.84;514201;28;3359;-69
2023/12/24 00:48:13;;;;;;;4.73;3.43;;;;;;;6.81;73.50;92713.66;513869;28;2819;-68
2023/12/24 00:48:28;;;;;;;4.85;3.45;;;;;;;6.82;73.40;92706.16;513550;28;3252;-68
2023/12/24 00:48:44;;;;;;;5.50;4.10;;;;;;;6.64;73.48;92688.72;513673;28;1891;-68
2023/12/24 00:49:00;;;;;;;5.43;4.38;;;;;;;6.77;73.48;92707.03;513765;28;1886;-68
2023/12/24 00:49:16;;;;;;;5.57;4.30;;;;;;;6.79;73.64;92713.47;513312;28;2961;-69
2023/12/24 00:49:31;;;;;;;5.47;4.00;;;;;;;6.74;73.70;92697.16;513613;28;3251;-68
2023/12/24 00:49:46;;;;;;;4.75;3.60;;;;;;;6.81;73.50;92707.44;513241;28;3114;-68
2023/12/24 00:50:02;;;;;;;4.63;3.47;;;;;;;6.84;73.57;92711.84;513601;28;1695;-68
2023/12/24 00:50:18;;;;;;;5.47;3.45;;;;;;;6.86;73.39;92706.53;513777;28;2428;-68
2023/12/24 00:50:33;;;;;;;4.90;3.47;;;;;;;6.78;73.33;92698.25;513243;28;1890;-68
2023/12/24 00:50:49;;;;;;;5.63;3.53;;;;;;;6.85;73.30;92713.28;513460;28;3216;-69
2023/12/24 00:51:04;;;;;;;6.53;3.70;;;;;;;6.81;73.27;92708.16;513779;28;1688;-68
2023/12/24 00:51:20;;;;;;;6.18;4.00;;;;;;;6.88;73.25;92717.72;513694;28;1874;-68
2023/12/24 00:51:41;;;;;;;5.83;3.60;;;;;;;6.91;73.16;92713.16;513159;28;2276;-67
2023/12/24 00:51:57;;;;;;;4.55;3.13;;;;;;;6.92;73.04;92714.59;513366;28;1988;-67
2023/12/24 00:52:13;;;;;;;3.70;3.38;;;;;;;6.92;73.05;92718.09;513645;28;2012;-68
2023/12/24 00:52:28;;;;;;;4.88;3.58;;;;;;;6.91;72.96;92718.63;513810;28;1576;-68
2023/12/24 00:52:44;;;;;;;5.63;3.63;;;;;;;6.84;73.03;92712.56;513516;28;2105;-67
2023/12/24 00:52:59;;;;;;;4.90;3.30;;;;;;;6.89;72.87;92714.41;514020;28;1836;-67
2023/12/24 00:53:15;;;;;;;6.15;3.70;;;;;;;6.89;72.98;92717.16;513566;28;4002;-68
2023/12/24 00:53:30;;;;;;;6.32;4.13;;;;;;;6.89;73.08;92713.66;513708;28;1752;-67
2023/12/24 00:53:46;;;;;;;6.07;4.23;;;;;;;6.88;73.01;92704.00;513048;28;3347;-68
2023/12/24 00:54:01;;;;;;;6.60;4.27;;;;;;;6.87;73.00;92711.47;514111;28;1781;-67
2023/12/24 00:54:17;;;;;;;5.97;4.00;;;;;;;6.88;72.99;92712.22;513628;28;2155;-68
2023/12/24 00:54:32;;;;;;;4.80;3.67;;;;;;;6.88;73.26;92714.97;514154;28;1865;-67
2023/12/24 00:54:48;;;;;;;5.18;3.72;;;;;;;6.74;73.11;92697.88;513257;28;2110;-68
2023/12/24 00:55:04;;;;;;;4.90;3.47;;;;;;;6.89;73.08;92722.66;513965;28;3010;-67
2023/12/24 00:55:20;;;;;;;5.45;3.50;;;;;;;6.92;73.15;92715.34;513430;28;2081;-67
2023/12/24 00:55:35;;;;;;;7.55;4.25;;;;;;;6.94;73.08;92714.78;513564;28;1833;-67
2023/12/24 00:55:51;;;;;;;6.53;4.27;;;;;;;6.94;73.15;92714.78;513531;28;2084;-67
2023/12/24 00:56:06;;;;;;;4.68;3.80;;;;;;;6.96;73.13;92712.22;513044;28;1770;-67
2023/12/24 00:56:22;;;;;;;5.03;3.73;;;;;;;6.97;73.16;92713.72;512932;28;2947;-67
2023/12/24 00:56:37;;;;;;;5.87;4.00;;;;;;;6.98;72.80;92718.66;513954;28;2026;-67
2023/12/24 00:56:53;;;;;;;6.07;4.00;;;;;;;6.99;72.76;92724.88;513337;28;3840;-68
2023/12/24 00:57:08;;;;;;;6.97;3.90;;;;;;;7.00;72.86;92718.84;513290;28;3265;-68
2023/12/24 00:57:24;;;;;;;8.20;3.97;;;;;;;6.99;72.75;92717.38;513214;28;1834;-68
2023/12/24 00:57:39;;;;;;;7.53;3.90;;;;;;;6.74;72.58;92681.44;513000;28;1562;-68
2023/12/24 00:57:54;;;;;;;5.18;3.45;;;;;;;6.97;72.63;92719.94;512987;28;2973;-68
2023/12/24 00:58:10;;;;;;;5.60;3.40;;;;;;;6.99;72.75;92716.66;513743;28;2024;-68
2023/12/24 00:58:26;;;;;;;5.80;3.65;;;;;;;7.00;72.61;92710.59;513198;28;1915;-67
2023/12/24 00:58:42;;;;;;;4.32;3.30;;;;;;;7.00;72.91;92718.84;513392;28;2400;-67
2023/12/24 00:58:57;;;;;;;3.70;3.10;;;;;;;6.99;72.74;92720.13;513440;28;1821;-68
2023/12/24 00:59:12;;;;;;;4.28;3.25;;;;;;;7.00;72.86;92713.34;513138;28;1833;-67
2023/12/24 00:59:28;;;;;;;5.00;3.50;;;;;;;6.99;72.53;92720.13;514200;28;1659;-68
2023/12/24 00:59:43;;;;;;;5.60;3.58;;;;;;;7.01;72.70;92717.56;513289;28;1863;-67
2023/12/24 00:59:59;;;;;;;4.87;3.30;;;;;;;7.00;72.67;92713.34;513725;28;2061;-68
2023/12/24 01:00:15;;;;;;;5.50;3.58;;;;;;;6.97;72.90;92708.22;512299;28;3654;-68
2023/12/24 01:00:30;;;;;;;5.03;3.60;;;;;;;6.97;72.83;92713.72;513651;28;1924;-68
2023/12/24 01:00:46;;;;;;;5.43;3.50;;;;;;;6.95;72.89;92706.03;512117;28;2863;-68
2023/12/24 01:01:02;;;;;;;5.35;3.70;;;;;;;6.98;73.08;92706.94;513294;28;1841;-68
2023/12/24 01:01:17;;;;;;;4.87;3.63;;;;;;;6.99;72.86;92708.41;512928;28;1802;-69
2023/12/24 01:01:33;;;;;;;5.57;3.60;;;;;;;6.93;73.11;92702.38;514261;28;2596;-68
2023/12/24 01:01:48;;;;;;;5.67;3.43;;;;;;;6.96;73.00;92701.25;512577;28;3236;-68
2023/12/24 01:02:03;;;;;;;6.03;3.00;;;;;;;6.92;72.71;92687.16;513330;28;2632;-69
2023/12/24 01:02:19;;;;;;;5.37;2.70;;;;;;;6.98;72.78;92704.19;513274;28;2086;-68
2023/12/24 01:02:34;;;;;;;4.43;3.00;;;;;;;6.97;72.83;92706.22;513584;28;3254;-68
2023/12/24 01:02:50;;;;;;;5.30;3.20;;;;;;;6.99;72.72;92706.41;513354;28;1987;-69
2023/12/24 01:03:05;;;;;;;6.70;3.20;;;;;;;6.96;72.90;92701.25;514204;28;3587;-68
2023/12/24 01:03:21;;;;;;;5.85;3.28;;;;;;;6.93;73.06;92696.88;513040;28;1672;-69
2023/12/24 01:03:37;;;;;;;4.43;3.30;;;;;;;6.93;73.04;92700.34;514438;28;1567;-69
2023/12/24 01:03:52;;;;;;;4.90;3.50;;;;;;;6.92;72.89;92706.38;512827;28;1832;-69
2023/12/24 01:04:08;;;;;;;4.93;3.40;;;;;;;6.75;73.15;92691.13;514048;28;2991;-68
2023/12/24 01:04:23;;;;;;;5.27;3.53;;;;;;;6.86;73.10;92714.78;512789;28;3812;-69
2023/12/24 01:04:38;;;;;;;5.90;3.45;;;;;;;6.89;73.18;92708.91;514066;28;1900;-69
2023/12/24 01:04:54;;;;;;;4.80;3.10;;;;;;;6.88;73.14;92704.72;513373;28;3153;-69
2023/12/24 01:05:09;;;;;;;3.80;3.03;;;;;;;6.91;73.08;92702.16;513836;28;1540;-68
2023/12/24 01:05:25;;;;;;;3.88;3.20;;;;;;;6.90;72.96;92706.91;513159;28;2139;-68
2023/12/24 01:05:41;;;;;;;4.73;3.30;;;;;;;6.92;73.02;92709.13;513871;28;3211;-68
2023/12/24 01:05:56;;;;;;;5.20;3.15;;;;;;;6.81;72.85;92696.44;512695;28;3216;-68
2023/12/24 01:06:11;;;;;;;4.47;3.00;;;;;;;6.95;72.87;92716.28;514013;28;1860;-68
2023/12/24 01:06:27;;;;;;;5.77;3.07;;;;;;;6.94;73.16;92714.78;513392;28;3180;-68
2023/12/24 01:06:42;;;;;;;6.00;3.10;;;;;;;6.95;73.09;92711.53;513452;28;2032;-68
2023/12/24 01:06:59;;;;;;;4.63;3.10;;;;;;;6.99;72.93;92722.13;513295;28;3369;-68
2023/12/24 01:07:16;;;;;;;3.90;2.97;;;;;;;7.01;73.01;92716.84;514215;28;2021;-68
2023/12/24 01:07:31;;;;;;;3.22;2.92;;;;;;;6.94;72.90;92703.81;513284;28;1812;-68
2023/12/24 01:07:47;;;;;;;3.50;3.08;;;;;;;7.03;72.70;92719.78;513591;28;2312;-68
2023/12/24 01:08:02;;;;;;;4.07;3.40;;;;;;;7.03;72.76;92722.50;511994;28;2386;-68
2023/12/24 01:08:18;;;;;;;6.00;3.47;;;;;;;7.03;72.53;92726.00;513417;28;1544;-68
2023/12/24 01:08:33;;;;;;;6.13;3.50;;;;;;;7.03;72.54;92720.50;513477;28;1576;-68
2023/12/24 01:08:48;;;;;;;4.80;3.63;;;;;;;7.02;72.61;92716.28;513800;28;1224;-68
2023/12/24 01:09:04;;;;;;;4.78;3.33;;;;;;;7.03;72.36;92717.75;513365;28;1911;-68
2023/12/24 01:09:19;;;;;;;4.47;3.00;;;;;;;6.99;72.37;92722.13;513085;28;2186;-68
2023/12/24 01:09:38;;;;;;;4.15;3.00;;;;;;;6.88;72.41;92707.47;514620;28;2025;-68
2023/12/24 01:09:54;;;;;;;4.50;3.10;;;;;;;6.97;72.42;92730.19;513587;28;1521;-68
2023/12/24 01:10:09;;;;;;;4.85;2.80;;;;;;;6.97;72.37;92730.19;512241;28;2960;-69
2023/12/24 01:10:25;;;;;;;4.55;2.80;;;;;;;6.97;72.31;92730.91;513744;28;1895;-69
2023/12/24 01:10:40;;;;;;;3.43;2.67;;;;;;;6.97;72.32;92725.44;512737;28;3602;-69
2023/12/24 01:10:56;;;;;;;3.17;2.70;;;;;;;6.97;72.39;92732.94;513725;28;2250;-68
2023/12/24 01:11:12;;;;;;;3.42;2.90;;;;;;;6.96;72.43;92726.69;512485;28;1911;-69
2023/12/24 01:11:28;;;;;;;3.85;2.90;;;;;;;6.98;72.31;92726.16;513878;28;2100;-68
2023/12/24 01:11:43;;;;;;;4.70;3.00;;;;;;;7.00;72.31;92731.81;512895;28;2417;-68
2023/12/24 01:11:59;;;;;;;4.30;3.15;;;;;;;7.01;72.38;92727.81;513828;28;2001;-68
2023/12/24 01:12:15;;;;;;;3.73;3.10;;;;;;;7.00;72.49;92729.81;512587;28;3365;-68
2023/12/24 01:12:32;;;;;;;4.43;2.85;;;;;;;6.98;72.47;92726.88;513732;28;3111;-68
2023/12/24 01:12:48;;;;;;;4.70;3.03;;;;;;;7.01;72.33;92728.56;513359;28;3160;-68
2023/12/24 01:13:03;;;;;;;4.00;3.23;;;;;;;7.03;72.38;92728.75;513878;28;3002;-68
2023/12/24 01:13:19;;;;;;;4.78;3.17;;;;;;;7.05;72.25;92728.94;512452;28;3314;-68
2023/12/24 01:13:34;;;;;;;5.23;3.10;;;;;;;7.04;72.27;92724.72;514278;28;1128;-68
2023/12/24 01:13:50;;;;;;;4.68;3.08;;;;;;;7.04;72.30;92735.69;513426;28;3216;-68
2023/12/24 01:14:05;;;;;;;4.43;2.73;;;;;;;7.04;72.25;92732.94;513464;28;1528;-69
2023/12/24 01:14:21;;;;;;;4.43;2.77;;;;;;;6.97;72.50;92719.19;513136;28;3311;-69
2023/12/24 01:14:36;;;;;;;3.70;2.63;;;;;;;7.06;72.44;92733.13;513686;28;2538;-67
2023/12/24 01:14:51;;;;;;;2.67;2.43;;;;;;;7.06;72.03;92733.13;513038;28;3251;-68
2023/12/24 01:15:07;;;;;;;2.53;2.30;;;;;;;7.06;72.13;92729.69;511981;28;2130;-68
2023/12/24 01:15:24;;;;;;;2.95;2.30;;;;;;;7.07;72.23;92736.63;511963;28;3458;-69
2023/12/24 01:15:39;;;;;;;2.80;2.30;;;;;;;7.09;72.08;92731.31;512395;28;1770;-68
2023/12/24 01:15:55;;;;;;;3.10;2.53;;;;;;;7.09;72.01;92731.31;513678;28;2124;-68
2023/12/24 01:16:11;;;;;;;4.40;2.70;;;;;;;7.09;71.96;92725.81;514157;28;1915;-68
2023/12/24 01:16:26;;;;;;;5.50;2.70;;;;;;;7.09;72.02;92726.56;512612;28;2025;-68
2023/12/24 01:16:42;;;;;;;5.30;2.77;;;;;;;7.09;71.90;92734.06;513344;28;2362;-67